sensor_id;sensor_type;location;lat;lon;timestamp;pressure;altitude;pressure_sealevel;temperature;humidity
13476;BME280;6810;63.824;20.288;2022-12-29T00:01:58;100808.63;;;-10.93;87.87
13476;BME280;6810;63.824;20.288;2022-12-29T00:04:45;100696.91;;;-11.63;87.35
13476;BME280;6810;63.824;20.288;2022-12-29T00:07:32;100854.72;;;-10.70;88.11
13476;BME280;6810;63.824;20.288;2022-12-29T00:10:19;100852.81;;;-10.77;88.07
13476;BME280;6810;63.824;20.288;2022-12-29T00:13:07;100849.41;;;-10.76;87.34
13476;BME280;6810;63.824;20.288;2022-12-29T00:15:52;100837.13;;;-10.86;88.29
13476;BME280;6810;63.824;20.288;2022-12-29T00:18:39;100858.69;;;-10.81;87.25
13476;BME280;6810;63.824;20.288;2022-12-29T00:21:27;100858.66;;;-10.83;88.26
13476;BME280;6810;63.824;20.288;2022-12-29T00:24:16;100857.47;;;-10.94;87.92
13476;BME280;6810;63.824;20.288;2022-12-29T00:29:50;100860.16;;;-10.91;88.01
13476;BME280;6810;63.824;20.288;2022-12-29T00:32:37;100856.56;;;-10.96;87.93
13476;BME280;6810;63.824;20.288;2022-12-29T00:35:24;100863.31;;;-11.00;87.82
13476;BME280;6810;63.824;20.288;2022-12-29T00:38:12;100864.06;;;-11.04;87.12
13476;BME280;6810;63.824;20.288;2022-12-29T00:40:58;100858.88;;;-11.05;87.03
13476;BME280;6810;63.824;20.288;2022-12-29T00:43:44;100843.97;;;-11.15;87.07
13476;BME280;6810;63.824;20.288;2022-12-29T00:46:29;100828.28;;;-11.24;87.73
13476;BME280;6810;63.824;20.288;2022-12-29T00:49:16;100838.56;;;-11.24;87.39
13476;BME280;6810;63.824;20.288;2022-12-29T00:52:19;100841.19;;;-11.23;87.60
13476;BME280;6810;63.824;20.288;2022-12-29T00:55:06;100859.38;;;-11.17;87.46
13476;BME280;6810;63.824;20.288;2022-12-29T00:57:53;100873.06;;;-11.18;87.50
13476;BME280;6810;63.824;20.288;2022-12-29T01:00:40;100860.09;;;-11.21;87.32
13476;BME280;6810;63.824;20.288;2022-12-29T01:03:27;100878.06;;;-11.22;87.33
13476;BME280;6810;63.824;20.288;2022-12-29T01:06:14;100695.78;;;-12.27;86.85
13476;BME280;6810;63.824;20.288;2022-12-29T01:09:01;100871.91;;;-11.27;86.92
13476;BME280;6810;63.824;20.288;2022-12-29T01:11:47;100873.53;;;-11.29;87.69
13476;BME280;6810;63.824;20.288;2022-12-29T01:14:34;100873.44;;;-11.32;87.39
13476;BME280;6810;63.824;20.288;2022-12-29T01:17:21;100873.41;;;-11.34;87.58
13476;BME280;6810;63.824;20.288;2022-12-29T01:20:09;100869.94;;;-11.36;87.00
13476;BME280;6810;63.824;20.288;2022-12-29T01:22:56;100876.72;;;-11.38;87.57
13476;BME280;6810;63.824;20.288;2022-12-29T01:25:44;100790.28;;;-11.89;86.52
13476;BME280;6810;63.824;20.288;2022-12-29T01:28:31;100868.66;;;-11.48;87.48
13476;BME280;6810;63.824;20.288;2022-12-29T01:31:18;100846.06;;;-11.58;87.44
13476;BME280;6810;63.824;20.288;2022-12-29T01:34:05;100852.13;;;-11.56;86.54
13476;BME280;6810;63.824;20.288;2022-12-29T01:36:52;100874.59;;;-11.51;86.72
13476;BME280;6810;63.824;20.288;2022-12-29T01:39:39;100857.97;;;-11.62;87.09
13476;BME280;6810;63.824;20.288;2022-12-29T01:42:27;100782.00;;;-12.07;86.76
13476;BME280;6810;63.824;20.288;2022-12-29T01:45:15;100870.81;;;-11.62;87.15
13476;BME280;6810;63.824;20.288;2022-12-29T01:48:04;100870.69;;;-11.66;86.99
13476;BME280;6810;63.824;20.288;2022-12-29T01:50:53;100875.09;;;-11.62;87.02
13476;BME280;6810;63.824;20.288;2022-12-29T01:53:40;100869.84;;;-11.65;87.27
13476;BME280;6810;63.824;20.288;2022-12-29T01:56:27;100769.63;;;-12.20;86.80
13476;BME280;6810;63.824;20.288;2022-12-29T01:59:20;100862.88;;;-11.69;87.04
13476;BME280;6810;63.824;20.288;2022-12-29T02:02:10;100795.69;;;-12.08;86.45
13476;BME280;6810;63.824;20.288;2022-12-29T02:05:04;100860.91;;;-11.76;86.19
13476;BME280;6810;63.824;20.288;2022-12-29T02:07:52;100870.31;;;-11.78;86.66
13476;BME280;6810;63.824;20.288;2022-12-29T02:10:40;100870.19;;;-11.81;86.19
13476;BME280;6810;63.824;20.288;2022-12-29T02:13:33;100854.41;;;-11.92;86.39
13476;BME280;6810;63.824;20.288;2022-12-29T02:20:41;100858.75;;;-11.91;86.79
13476;BME280;6810;63.824;20.288;2022-12-29T02:30:15;100845.25;;;-12.10;86.34
13476;BME280;6810;63.824;20.288;2022-12-29T02:44:56;100853.00;;;-12.09;86.11
13476;BME280;6810;63.824;20.288;2022-12-29T02:47:51;100852.97;;;-12.10;85.94
13476;BME280;6810;63.824;20.288;2022-12-29T02:50:55;100853.69;;;-12.13;85.92
13476;BME280;6810;63.824;20.288;2022-12-29T02:53:44;100705.38;;;-12.98;85.84
13476;BME280;6810;63.824;20.288;2022-12-29T02:56:31;100664.47;;;-13.20;85.88
13476;BME280;6810;63.824;20.288;2022-12-29T02:59:18;100856.06;;;-12.19;86.31
13476;BME280;6810;63.824;20.288;2022-12-29T03:02:19;100848.25;;;-12.22;86.63
13476;BME280;6810;63.824;20.288;2022-12-29T03:05:47;100849.03;;;-12.24;86.00
13476;BME280;6810;63.824;20.288;2022-12-29T03:08:45;100842.97;;;-12.26;86.32
13476;BME280;6810;63.824;20.288;2022-12-29T03:11:58;100845.50;;;-12.28;86.13
13476;BME280;6810;63.824;20.288;2022-12-29T03:15:02;100817.84;;;-12.60;86.62
13476;BME280;6810;63.824;20.288;2022-12-29T03:18:04;100856.44;;;-12.33;86.16
13476;BME280;6810;63.824;20.288;2022-12-29T03:21:00;100851.19;;;-12.36;86.54
13476;BME280;6810;63.824;20.288;2022-12-29T03:23:49;100848.56;;;-12.38;85.87
13476;BME280;6810;63.824;20.288;2022-12-29T03:26:37;100851.94;;;-12.39;86.40
13476;BME280;6810;63.824;20.288;2022-12-29T03:29:29;100839.00;;;-12.42;85.88
13476;BME280;6810;63.824;20.288;2022-12-29T03:32:21;100694.19;;;-13.25;85.91
13476;BME280;6810;63.824;20.288;2022-12-29T03:35:13;100833.75;;;-12.45;85.40
13476;BME280;6810;63.824;20.288;2022-12-29T03:38:11;100845.69;;;-12.47;86.14
13476;BME280;6810;63.824;20.288;2022-12-29T03:41:04;100844.44;;;-12.58;85.51
13476;BME280;6810;63.824;20.288;2022-12-29T03:43:52;100813.88;;;-12.76;86.29
13476;BME280;6810;63.824;20.288;2022-12-29T03:46:40;100707.31;;;-13.40;85.97
13476;BME280;6810;63.824;20.288;2022-12-29T03:49:27;100849.56;;;-12.58;86.24
13476;BME280;6810;63.824;20.288;2022-12-29T03:52:15;100865.88;;;-12.56;86.07
13476;BME280;6810;63.824;20.288;2022-12-29T03:55:03;100865.03;;;-12.56;86.00
13476;BME280;6810;63.824;20.288;2022-12-29T03:57:51;100876.75;;;-12.63;86.28
13476;BME280;6810;63.824;20.288;2022-12-29T04:00:58;100875.22;;;-12.58;85.79
13476;BME280;6810;63.824;20.288;2022-12-29T04:03:45;100864.13;;;-12.57;85.99
13476;BME280;6810;63.824;20.288;2022-12-29T04:06:33;100863.25;;;-12.57;85.99
13476;BME280;6810;63.824;20.288;2022-12-29T04:09:20;100855.34;;;-12.63;86.10
13476;BME280;6810;63.824;20.288;2022-12-29T04:12:09;100852.50;;;-12.71;85.83
13476;BME280;6810;63.824;20.288;2022-12-29T04:14:57;100844.91;;;-12.68;86.13
13476;BME280;6810;63.824;20.288;2022-12-29T04:17:44;100722.84;;;-13.35;85.90
13476;BME280;6810;63.824;20.288;2022-12-29T04:20:33;100855.59;;;-12.56;86.03
13476;BME280;6810;63.824;20.288;2022-12-29T04:23:19;100853.97;;;-12.54;86.08
13476;BME280;6810;63.824;20.288;2022-12-29T04:26:08;100800.66;;;-12.86;85.67
13476;BME280;6810;63.824;20.288;2022-12-29T04:29:33;100815.84;;;-12.68;85.43
13476;BME280;6810;63.824;20.288;2022-12-29T04:32:39;100813.34;;;-12.67;85.45
13476;BME280;6810;63.824;20.288;2022-12-29T04:35:27;100836.06;;;-12.52;86.32
13476;BME280;6810;63.824;20.288;2022-12-29T04:38:15;100734.13;;;-13.08;86.04
13476;BME280;6810;63.824;20.288;2022-12-29T04:41:03;100837.22;;;-12.44;85.84
13476;BME280;6810;63.824;20.288;2022-12-29T04:43:51;100834.69;;;-12.43;85.99
13476;BME280;6810;63.824;20.288;2022-12-29T04:47:02;100823.66;;;-12.40;86.07
13476;BME280;6810;63.824;20.288;2022-12-29T04:50:21;100795.06;;;-12.51;85.81
13476;BME280;6810;63.824;20.288;2022-12-29T04:53:19;100795.19;;;-12.48;86.23
13476;BME280;6810;63.824;20.288;2022-12-29T04:56:07;100810.28;;;-12.32;85.77
13476;BME280;6810;63.824;20.288;2022-12-29T04:58:54;100823.28;;;-12.27;86.00
13476;BME280;6810;63.824;20.288;2022-12-29T05:01:42;100800.06;;;-12.30;86.73
13476;BME280;6810;63.824;20.288;2022-12-29T05:04:32;100808.91;;;-12.21;86.06
13476;BME280;6810;63.824;20.288;2022-12-29T05:07:19;100806.50;;;-12.18;86.72
13476;BME280;6810;63.824;20.288;2022-12-29T05:10:06;100808.31;;;-12.14;86.64
13476;BME280;6810;63.824;20.288;2022-12-29T05:12:57;100804.22;;;-12.09;86.22
13476;BME280;6810;63.824;20.288;2022-12-29T05:15:51;100798.34;;;-12.05;86.56
13476;BME280;6810;63.824;20.288;2022-12-29T05:18:38;100777.56;;;-12.12;86.55
13476;BME280;6810;63.824;20.288;2022-12-29T05:21:25;100792.63;;;-11.96;86.15
13476;BME280;6810;63.824;20.288;2022-12-29T05:24:12;100784.22;;;-11.92;86.06
13476;BME280;6810;63.824;20.288;2022-12-29T05:26:59;100767.97;;;-11.91;86.97
13476;BME280;6810;63.824;20.288;2022-12-29T05:30:08;100787.94;;;-11.83;86.08
13476;BME280;6810;63.824;20.288;2022-12-29T05:32:56;100787.22;;;-11.79;86.44
13476;BME280;6810;63.824;20.288;2022-12-29T05:35:44;100674.88;;;-12.39;86.19
13476;BME280;6810;63.824;20.288;2022-12-29T05:38:32;100790.91;;;-11.71;86.06
13476;BME280;6810;63.824;20.288;2022-12-29T05:41:19;100807.25;;;-11.67;86.52
13476;BME280;6810;63.824;20.288;2022-12-29T05:44:29;100790.28;;;-11.62;87.07
13476;BME280;6810;63.824;20.288;2022-12-29T05:47:23;100780.13;;;-11.58;86.39
13476;BME280;6810;63.824;20.288;2022-12-29T05:50:38;100773.44;;;-11.53;86.43
13476;BME280;6810;63.824;20.288;2022-12-29T05:53:36;100782.97;;;-11.49;86.70
13476;BME280;6810;63.824;20.288;2022-12-29T05:56:23;100766.81;;;-11.45;86.74
13476;BME280;6810;63.824;20.288;2022-12-29T05:59:11;100723.31;;;-11.68;86.52
13476;BME280;6810;63.824;20.288;2022-12-29T06:01:58;100768.75;;;-11.38;87.21
13476;BME280;6810;63.824;20.288;2022-12-29T06:04:46;100776.59;;;-11.33;86.33
13476;BME280;6810;63.824;20.288;2022-12-29T06:07:35;100773.28;;;-11.29;86.54
13476;BME280;6810;63.824;20.288;2022-12-29T06:10:22;100729.66;;;-11.56;86.44
13476;BME280;6810;63.824;20.288;2022-12-29T06:13:09;100774.38;;;-11.21;86.70
13476;BME280;6810;63.824;20.288;2022-12-29T06:15:57;100778.78;;;-11.17;86.43
13476;BME280;6810;63.824;20.288;2022-12-29T06:18:44;100771.22;;;-11.13;86.85
13476;BME280;6810;63.824;20.288;2022-12-29T06:21:31;100777.28;;;-11.09;87.34
13476;BME280;6810;63.824;20.288;2022-12-29T06:24:18;100784.31;;;-11.04;87.37
13476;BME280;6810;63.824;20.288;2022-12-29T06:27:05;100765.53;;;-11.01;86.78
13476;BME280;6810;63.824;20.288;2022-12-29T06:29:52;100761.38;;;-10.96;86.61
13476;BME280;6810;63.824;20.288;2022-12-29T06:32:40;100769.28;;;-10.90;86.59
13476;BME280;6810;63.824;20.288;2022-12-29T06:35:27;100757.38;;;-10.86;87.01
13476;BME280;6810;63.824;20.288;2022-12-29T06:38:14;100751.44;;;-10.84;86.83
13476;BME280;6810;63.824;20.288;2022-12-29T06:41:01;100714.13;;;-11.00;87.31
13476;BME280;6810;63.824;20.288;2022-12-29T06:44:12;100744.88;;;-10.73;86.54
13476;BME280;6810;63.824;20.288;2022-12-29T06:47:02;100751.00;;;-10.68;87.60
13476;BME280;6810;63.824;20.288;2022-12-29T06:49:48;100762.28;;;-10.63;86.81
13476;BME280;6810;63.824;20.288;2022-12-29T06:52:35;100752.09;;;-10.58;87.69
13476;BME280;6810;63.824;20.288;2022-12-29T06:55:22;100744.53;;;-10.52;87.69
13476;BME280;6810;63.824;20.288;2022-12-29T06:58:09;100721.09;;;-10.63;87.13
13476;BME280;6810;63.824;20.288;2022-12-29T07:00:56;100743.09;;;-10.43;86.83
13476;BME280;6810;63.824;20.288;2022-12-29T07:03:43;100730.31;;;-10.38;87.61
13476;BME280;6810;63.824;20.288;2022-12-29T07:06:30;100723.59;;;-10.33;87.01
13476;BME280;6810;63.824;20.288;2022-12-29T07:09:17;100710.81;;;-10.29;87.06
13476;BME280;6810;63.824;20.288;2022-12-29T07:12:04;100702.19;;;-10.31;87.89
13476;BME280;6810;63.824;20.288;2022-12-29T07:14:51;100727.38;;;-10.19;87.95
13476;BME280;6810;63.824;20.288;2022-12-29T07:17:38;100736.94;;;-10.14;87.59
13476;BME280;6810;63.824;20.288;2022-12-29T07:20:25;100716.34;;;-10.14;87.66
13476;BME280;6810;63.824;20.288;2022-12-29T07:23:12;100742.31;;;-10.03;87.39
13476;BME280;6810;63.824;20.288;2022-12-29T07:26:04;100692.91;;;-10.24;87.47
13476;BME280;6810;63.824;20.288;2022-12-29T07:28:54;100717.50;;;-10.00;88.20
13476;BME280;6810;63.824;20.288;2022-12-29T07:31:41;100708.09;;;-9.98;87.80
13476;BME280;6810;63.824;20.288;2022-12-29T07:34:28;100732.53;;;-9.81;87.59
13476;BME280;6810;63.824;20.288;2022-12-29T07:37:15;100642.84;;;-10.35;87.56
13476;BME280;6810;63.824;20.288;2022-12-29T07:40:03;100596.94;;;-10.54;88.07
13476;BME280;6810;63.824;20.288;2022-12-29T07:42:50;100738.94;;;-9.64;88.04
13476;BME280;6810;63.824;20.288;2022-12-29T07:45:49;100729.66;;;-9.57;88.22
13476;BME280;6810;63.824;20.288;2022-12-29T07:48:56;100730.63;;;-9.52;88.04
13476;BME280;6810;63.824;20.288;2022-12-29T07:51:43;100664.56;;;-9.87;87.67
13476;BME280;6810;63.824;20.288;2022-12-29T07:54:10;100697.69;;;-9.64;87.63
13476;BME280;6810;63.824;20.288;2022-12-29T07:56:38;100609.19;;;-10.04;88.05
13476;BME280;6810;63.824;20.288;2022-12-29T07:59:05;100622.22;;;-9.98;87.82
13476;BME280;6810;63.824;20.288;2022-12-29T08:01:32;100726.91;;;-9.26;88.28
13476;BME280;6810;63.824;20.288;2022-12-29T08:03:59;100703.44;;;-9.37;88.50
13476;BME280;6810;63.824;20.288;2022-12-29T08:06:26;100727.97;;;-9.15;88.26
13476;BME280;6810;63.824;20.288;2022-12-29T08:08:53;100707.25;;;-9.18;88.21
13476;BME280;6810;63.824;20.288;2022-12-29T08:11:23;100704.84;;;-9.11;88.07
13476;BME280;6810;63.824;20.288;2022-12-29T08:13:50;100703.97;;;-9.11;88.22
13476;BME280;6810;63.824;20.288;2022-12-29T08:16:17;100719.66;;;-9.00;88.50
13476;BME280;6810;63.824;20.288;2022-12-29T08:18:44;100666.66;;;-9.28;88.19
13476;BME280;6810;63.824;20.288;2022-12-29T08:21:11;100738.13;;;-8.81;88.61
13476;BME280;6810;63.824;20.288;2022-12-29T08:23:38;100738.19;;;-8.76;88.58
13476;BME280;6810;63.824;20.288;2022-12-29T08:26:05;100727.09;;;-8.71;88.16
13476;BME280;6810;63.824;20.288;2022-12-29T08:28:33;100735.81;;;-8.66;88.55
13476;BME280;6810;63.824;20.288;2022-12-29T08:31:01;100716.97;;;-8.62;88.33
13476;BME280;6810;63.824;20.288;2022-12-29T08:33:28;100721.41;;;-8.53;88.53
13476;BME280;6810;63.824;20.288;2022-12-29T08:36:16;100709.47;;;-8.48;88.36
13476;BME280;6810;63.824;20.288;2022-12-29T08:39:03;100694.84;;;-8.46;88.63
13476;BME280;6810;63.824;20.288;2022-12-29T08:41:50;100693.28;;;-8.37;88.74
13476;BME280;6810;63.824;20.288;2022-12-29T08:44:38;100680.47;;;-8.31;89.08
13476;BME280;6810;63.824;20.288;2022-12-29T08:47:25;100677.97;;;-8.25;88.93
13476;BME280;6810;63.824;20.288;2022-12-29T08:50:12;100647.78;;;-8.29;89.16
13476;BME280;6810;63.824;20.288;2022-12-29T08:52:59;100670.44;;;-8.10;89.09
13476;BME280;6810;63.824;20.288;2022-12-29T08:55:47;100542.13;;;-8.67;89.18
13476;BME280;6810;63.824;20.288;2022-12-29T08:58:43;100666.38;;;-7.93;89.22
13476;BME280;6810;63.824;20.288;2022-12-29T09:01:10;100667.34;;;-7.86;89.23
13476;BME280;6810;63.824;20.288;2022-12-29T09:03:57;100658.78;;;-7.81;89.34
13476;BME280;6810;63.824;20.288;2022-12-29T09:06:45;100665.03;;;-7.67;89.53
13476;BME280;6810;63.824;20.288;2022-12-29T09:09:32;100606.06;;;-7.95;89.85
13476;BME280;6810;63.824;20.288;2022-12-29T09:12:20;100673.03;;;-7.47;89.76
13476;BME280;6810;63.824;20.288;2022-12-29T09:15:07;100682.63;;;-7.42;89.81
13476;BME280;6810;63.824;20.288;2022-12-29T09:17:55;100669.75;;;-7.36;90.25
13476;BME280;6810;63.824;20.288;2022-12-29T09:20:47;100685.63;;;-7.07;90.30
13476;BME280;6810;63.824;20.288;2022-12-29T09:23:34;100685.88;;;-6.83;90.42
13476;BME280;6810;63.824;20.288;2022-12-29T09:26:21;100652.22;;;-6.83;90.49
13476;BME280;6810;63.824;20.288;2022-12-29T09:29:12;100671.38;;;-6.69;89.87
13476;BME280;6810;63.824;20.288;2022-12-29T09:31:59;100631.56;;;-6.75;89.91
13476;BME280;6810;63.824;20.288;2022-12-29T09:34:49;100517.97;;;-7.35;90.00
13476;BME280;6810;63.824;20.288;2022-12-29T09:37:36;100608.31;;;-6.72;90.34
13476;BME280;6810;63.824;20.288;2022-12-29T09:40:29;100624.03;;;-6.51;90.01
13476;BME280;6810;63.824;20.288;2022-12-29T09:46:35;100612.88;;;-6.41;90.49
13476;BME280;6810;63.824;20.288;2022-12-29T09:49:45;100605.16;;;-6.32;90.71
13476;BME280;6810;63.824;20.288;2022-12-29T09:56:01;100597.47;;;-6.19;90.89
13476;BME280;6810;63.824;20.288;2022-12-29T09:58:51;100603.59;;;-6.12;90.96
13476;BME280;6810;63.824;20.288;2022-12-29T10:02:46;100590.66;;;-6.05;90.50
13476;BME280;6810;63.824;20.288;2022-12-29T10:05:43;100582.91;;;-6.00;90.51
13476;BME280;6810;63.824;20.288;2022-12-29T10:08:52;100591.59;;;-5.94;90.78
13476;BME280;6810;63.824;20.288;2022-12-29T10:18:39;100566.59;;;-5.75;90.77
13476;BME280;6810;63.824;20.288;2022-12-29T10:24:21;100536.28;;;-5.84;91.51
13476;BME280;6810;63.824;20.288;2022-12-29T10:27:12;100567.53;;;-5.57;91.75
13476;BME280;6810;63.824;20.288;2022-12-29T10:30:02;100565.78;;;-5.52;91.05
13476;BME280;6810;63.824;20.288;2022-12-29T10:32:52;100558.03;;;-5.47;91.18
13476;BME280;6810;63.824;20.288;2022-12-29T10:35:41;100493.06;;;-5.77;91.27
13476;BME280;6810;63.824;20.288;2022-12-29T10:38:35;100545.94;;;-5.38;91.17
13476;BME280;6810;63.824;20.288;2022-12-29T10:41:48;100539.03;;;-5.34;91.86
13476;BME280;6810;63.824;20.288;2022-12-29T10:44:29;100526.06;;;-5.29;90.99
13476;BME280;6810;63.824;20.288;2022-12-29T10:47:24;100526.94;;;-5.26;91.61
13476;BME280;6810;63.824;20.288;2022-12-29T10:50:12;100515.69;;;-5.22;90.91
13476;BME280;6810;63.824;20.288;2022-12-29T10:53:02;100507.91;;;-5.17;92.03
13476;BME280;6810;63.824;20.288;2022-12-29T10:55:49;100397.94;;;-5.80;91.25
13476;BME280;6810;63.824;20.288;2022-12-29T10:58:36;100503.59;;;-5.12;91.26
13476;BME280;6810;63.824;20.288;2022-12-29T11:01:31;100411.81;;;-5.57;91.41
13476;BME280;6810;63.824;20.288;2022-12-29T11:04:32;100492.31;;;-5.01;91.79
13476;BME280;6810;63.824;20.288;2022-12-29T11:07:20;100401.44;;;-5.46;91.30
13476;BME280;6810;63.824;20.288;2022-12-29T11:10:29;100473.28;;;-4.92;91.53
13476;BME280;6810;63.824;20.288;2022-12-29T11:13:19;100462.03;;;-4.97;91.56
13476;BME280;6810;63.824;20.288;2022-12-29T11:16:11;100468.94;;;-4.83;92.13
13476;BME280;6810;63.824;20.288;2022-12-29T11:18:59;100382.38;;;-5.27;92.07
13476;BME280;6810;63.824;20.288;2022-12-29T11:21:46;100448.19;;;-4.80;91.69
13476;BME280;6810;63.824;20.288;2022-12-29T11:24:43;100446.41;;;-4.72;91.77
13476;BME280;6810;63.824;20.288;2022-12-29T11:27:31;100442.06;;;-4.67;92.49
13476;BME280;6810;63.824;20.288;2022-12-29T11:30:24;100435.16;;;-4.62;92.23
13476;BME280;6810;63.824;20.288;2022-12-29T11:33:12;100412.59;;;-4.61;92.20
13476;BME280;6810;63.824;20.288;2022-12-29T11:36:05;100411.72;;;-4.51;92.92
13476;BME280;6810;63.824;20.288;2022-12-29T11:38:54;100406.50;;;-4.44;92.90
13476;BME280;6810;63.824;20.288;2022-12-29T11:41:51;100394.34;;;-4.39;92.05
13476;BME280;6810;63.824;20.288;2022-12-29T11:44:44;100411.63;;;-4.26;92.56
13476;BME280;6810;63.824;20.288;2022-12-29T11:47:36;100381.28;;;-4.25;93.30
13476;BME280;6810;63.824;20.288;2022-12-29T11:50:31;100395.09;;;-4.13;92.44
13476;BME280;6810;63.824;20.288;2022-12-29T11:56:09;100388.97;;;-4.01;93.65
13476;BME280;6810;63.824;20.288;2022-12-29T12:05:30;100370.66;;;-3.85;93.39
13476;BME280;6810;63.824;20.288;2022-12-29T12:08:30;100360.19;;;-3.79;93.50
13476;BME280;6810;63.824;20.288;2022-12-29T12:11:25;100354.09;;;-3.72;92.67
13476;BME280;6810;63.824;20.288;2022-12-29T12:14:27;100354.91;;;-3.67;92.87
13476;BME280;6810;63.824;20.288;2022-12-29T12:17:46;100261.56;;;-4.15;92.55
13476;BME280;6810;63.824;20.288;2022-12-29T12:29:36;100325.16;;;-3.37;92.91
13476;BME280;6810;63.824;20.288;2022-12-29T12:35:45;100316.34;;;-3.24;93.78
13476;BME280;6810;63.824;20.288;2022-12-29T13:09:21;100273.16;;;-2.69;93.83
13476;BME280;6810;63.824;20.288;2022-12-29T13:15:08;100256.53;;;-2.57;94.54
13476;BME280;6810;63.824;20.288;2022-12-29T13:18:44;100240.81;;;-2.53;94.82
13476;BME280;6810;63.824;20.288;2022-12-29T13:27:13;100240.63;;;-2.41;94.73
13476;BME280;6810;63.824;20.288;2022-12-29T13:29:47;100241.47;;;-2.37;94.03
13476;BME280;6810;63.824;20.288;2022-12-29T13:32:53;100237.03;;;-2.32;94.27
13476;BME280;6810;63.824;20.288;2022-12-29T13:36:10;100230.03;;;-2.29;95.01
13476;BME280;6810;63.824;20.288;2022-12-29T13:39:26;100222.13;;;-2.24;95.04
13476;BME280;6810;63.824;20.288;2022-12-29T13:42:18;100133.28;;;-2.71;94.49
13476;BME280;6810;63.824;20.288;2022-12-29T13:45:10;100198.53;;;-2.18;94.79
13476;BME280;6810;63.824;20.288;2022-12-29T13:48:24;100186.31;;;-2.15;94.65
13476;BME280;6810;63.824;20.288;2022-12-29T13:51:13;100150.84;;;-2.28;95.08
13476;BME280;6810;63.824;20.288;2022-12-29T14:00:03;100164.34;;;-2.02;94.61
13476;BME280;6810;63.824;20.288;2022-12-29T14:07:49;100164.22;;;-1.93;94.70
13476;BME280;6810;63.824;20.288;2022-12-29T14:10:35;100146.72;;;-1.89;95.92
13476;BME280;6810;63.824;20.288;2022-12-29T14:13:23;100151.03;;;-1.85;94.66
13476;BME280;6810;63.824;20.288;2022-12-29T14:15:54;100139.66;;;-1.83;95.22
13476;BME280;6810;63.824;20.288;2022-12-29T14:18:43;100131.72;;;-1.78;94.78
13476;BME280;6810;63.824;20.288;2022-12-29T14:21:30;100121.22;;;-1.75;95.30
13476;BME280;6810;63.824;20.288;2022-12-29T14:24:38;100121.19;;;-1.72;95.74
13476;BME280;6810;63.824;20.288;2022-12-29T14:27:43;100121.13;;;-1.69;95.44
13476;BME280;6810;63.824;20.288;2022-12-29T14:31:00;100112.34;;;-1.66;95.24
13476;BME280;6810;63.824;20.288;2022-12-29T14:37:03;100077.66;;;-1.71;95.86
13476;BME280;6810;63.824;20.288;2022-12-29T14:42:50;100095.56;;;-1.53;95.23
13476;BME280;6810;63.824;20.288;2022-12-29T14:45:40;100085.97;;;-1.51;95.53
13476;BME280;6810;63.824;20.288;2022-12-29T14:48:36;100068.69;;;-1.60;95.20
13476;BME280;6810;63.824;20.288;2022-12-29T14:51:42;100082.34;;;-1.46;95.25
13476;BME280;6810;63.824;20.288;2022-12-29T14:57:28;100063.03;;;-1.39;95.26
13476;BME280;6810;63.824;20.288;2022-12-29T15:00:42;100060.34;;;-1.36;95.90
13476;BME280;6810;63.824;20.288;2022-12-29T15:03:49;100054.34;;;-1.39;95.60
13476;BME280;6810;63.824;20.288;2022-12-29T15:06:36;100041.22;;;-1.36;95.39
13476;BME280;6810;63.824;20.288;2022-12-29T15:09:34;100033.22;;;-1.29;96.05
13476;BME280;6810;63.824;20.288;2022-12-29T15:12:46;100041.00;;;-1.26;95.57
13476;BME280;6810;63.824;20.288;2022-12-29T15:15:37;100035.72;;;-1.24;96.28
13476;BME280;6810;63.824;20.288;2022-12-29T15:18:32;100038.28;;;-1.21;95.87
13476;BME280;6810;63.824;20.288;2022-12-29T15:21:28;100024.25;;;-1.19;95.72
13476;BME280;6810;63.824;20.288;2022-12-29T15:24:16;100032.94;;;-1.17;96.16
13476;BME280;6810;63.824;20.288;2022-12-29T15:27:17;99918.38;;;-1.73;96.38
13476;BME280;6810;63.824;20.288;2022-12-29T15:30:12;100014.53;;;-1.12;96.28
13476;BME280;6810;63.824;20.288;2022-12-29T15:33:00;100009.28;;;-1.11;95.85
13476;BME280;6810;63.824;20.288;2022-12-29T15:35:50;100009.25;;;-1.09;96.17
13476;BME280;6810;63.824;20.288;2022-12-29T15:38:39;100004.84;;;-1.07;96.25
13476;BME280;6810;63.824;20.288;2022-12-29T15:41:37;99997.78;;;-1.04;95.98
13476;BME280;6810;63.824;20.288;2022-12-29T15:44:29;99990.75;;;-1.02;96.23
13476;BME280;6810;63.824;20.288;2022-12-29T15:47:29;99946.06;;;-1.28;96.37
13476;BME280;6810;63.824;20.288;2022-12-29T15:50:24;99975.00;;;-0.99;96.52
13476;BME280;6810;63.824;20.288;2022-12-29T15:53:20;99977.56;;;-0.97;96.66
13476;BME280;6810;63.824;20.288;2022-12-29T15:56:09;99977.53;;;-0.96;96.22
13476;BME280;6810;63.824;20.288;2022-12-29T15:58:57;99964.44;;;-0.94;95.91
13476;BME280;6810;63.824;20.288;2022-12-29T16:01:44;99954.00;;;-0.96;96.13
13476;BME280;6810;63.824;20.288;2022-12-29T16:04:38;99954.84;;;-0.94;96.20
13476;BME280;6810;63.824;20.288;2022-12-29T16:07:54;99948.69;;;-0.93;96.58
13476;BME280;6810;63.824;20.288;2022-12-29T16:10:42;99909.00;;;-1.08;96.10
13476;BME280;6810;63.824;20.288;2022-12-29T16:13:39;99939.06;;;-0.91;96.91
13476;BME280;6810;63.824;20.288;2022-12-29T16:16:31;99944.22;;;-0.88;96.74
13476;BME280;6810;63.824;20.288;2022-12-29T16:19:25;99910.22;;;-0.88;96.28
13476;BME280;6810;63.824;20.288;2022-12-29T16:22:27;99916.28;;;-0.86;96.66
13476;BME280;6810;63.824;20.288;2022-12-29T16:25:18;99923.22;;;-0.85;96.75
13476;BME280;6810;63.824;20.288;2022-12-29T16:28:17;99907.50;;;-0.83;96.37
13476;BME280;6810;63.824;20.288;2022-12-29T16:31:06;99894.38;;;-0.82;96.58
13476;BME280;6810;63.824;20.288;2022-12-29T16:33:55;99894.34;;;-0.80;96.70
13476;BME280;6810;63.824;20.288;2022-12-29T16:37:24;99885.59;;;-0.79;96.73
13476;BME280;6810;63.824;20.288;2022-12-29T16:43:22;99803.78;;;-1.16;96.58
13476;BME280;6810;63.824;20.288;2022-12-29T16:46:27;99870.63;;;-0.74;96.77
13476;BME280;6810;63.824;20.288;2022-12-29T16:48:56;99879.34;;;-0.74;96.86
13476;BME280;6810;63.824;20.288;2022-12-29T16:51:34;99869.69;;;-0.72;96.91
13476;BME280;6810;63.824;20.288;2022-12-29T16:54:24;99865.28;;;-0.70;96.58